Archival Weather

Sydney Intl

Sydney, Australia (YSSY)

Report from: Friday, September 22, 2023 1:30 PM AEST
Current time: Sunday, February 25, 2024 4:04 AM AEDT

Current weather – Weather history – Daily summaries
Weather forecast

Temperature16.0°C (60.8°F)
Dew point8.0°C (46.4°F)
Winds 14 kts (7.2 m/s, 16.1 mph) South-Southeast (150°)
Visibility6.2 mi. (10 km)
Clouds Few clouds 3,300 ft. (1,006 m)
Scattered clouds 4,500 ft. (1,372 m)
Ceiling: Broken clouds 6,000 ft. (1,829 m)
Altimeter30.36 in.Hg (1028 mB)
Relative humidity59 %
Density altitude-223 ft. (-68 m)
Flight conditions Visual Meteorological Conditions
Raw dataYSSY 220330Z 15014KT 9999 FEW033 SCT045 BKN060 16/08 Q1028 RF00.0/000.6
An error has occurred. This application may no longer respond until reloaded. Reload 🗙